createdAt,value
2023-04-10T00:00:57.976Z,3.85
2023-04-10T00:03:03.349Z,3.80
2023-04-10T00:05:06.660Z,3.70
2023-04-10T00:07:08.419Z,4.18
2023-04-10T00:09:10.648Z,4.00
2023-04-10T00:11:12.309Z,3.65
2023-04-10T00:13:14.802Z,3.85
2023-04-10T00:15:16.533Z,3.67
2023-04-10T00:17:18.197Z,4.22
2023-04-10T00:19:19.878Z,3.70
2023-04-10T00:21:21.489Z,3.60
2023-04-10T00:23:24.231Z,3.90
2023-04-10T00:25:26.605Z,3.50
2023-04-10T00:27:28.317Z,3.42
2023-04-10T00:29:30.169Z,3.72
2023-04-10T00:31:32.124Z,4.10
2023-04-10T00:33:33.766Z,4.05
2023-04-10T00:35:35.620Z,3.75
2023-04-10T00:37:37.554Z,3.75
2023-04-10T00:39:39.197Z,3.88
2023-04-10T00:41:41.004Z,3.88
2023-04-10T00:43:43.728Z,3.80
2023-04-10T00:45:45.607Z,3.60
2023-04-10T00:47:47.296Z,4.07
2023-04-10T00:49:49.185Z,3.25
2023-04-10T00:51:51.064Z,3.50
2023-04-10T00:53:54.906Z,3.47
2023-04-10T00:55:57.764Z,3.70
2023-04-10T00:57:59.478Z,3.70
2023-04-10T01:00:01.416Z,4.30
2023-04-10T01:02:03.797Z,3.58
2023-04-10T01:04:06.583Z,3.60
2023-04-10T01:06:34.133Z,3.78
2023-04-10T01:08:55.098Z,3.85
2023-04-10T01:11:06.085Z,3.47
2023-04-10T01:13:22.621Z,3.50
2023-04-10T01:15:27.944Z,3.63
2023-04-10T01:17:34.681Z,4.30
2023-04-10T01:20:01.764Z,3.70
2023-04-10T01:22:05.191Z,4.03
2023-04-10T01:24:31.072Z,3.88
2023-04-10T01:27:00.080Z,3.70
2023-04-10T01:29:08.053Z,3.75
2023-04-10T01:31:15.615Z,3.53
2023-04-10T01:33:20.540Z,3.47
2023-04-10T01:35:22.947Z,3.80
2023-04-10T01:37:31.170Z,4.00
2023-04-10T01:39:37.892Z,3.95
2023-04-10T01:41:43.929Z,3.85
2023-04-10T01:43:48.789Z,3.90
2023-04-10T01:45:52.680Z,3.63
2023-04-10T01:47:55.663Z,4.00
2023-04-10T01:49:58.592Z,3.45
2023-04-10T01:52:01.636Z,3.63
2023-04-10T01:54:05.756Z,3.40
2023-04-10T01:56:09.352Z,3.60
2023-04-10T01:58:12.071Z,3.97
2023-04-10T02:00:13.862Z,3.55
2023-04-10T02:02:15.635Z,3.90
2023-04-10T02:04:17.658Z,3.90
2023-04-10T02:06:43.131Z,3.53
2023-04-10T02:08:57.222Z,3.78
2023-04-10T02:11:22.838Z,3.70
2023-04-10T02:13:27.665Z,3.83
2023-04-10T02:15:32.332Z,4.00
2023-04-10T02:17:35.766Z,3.58
2023-04-10T02:19:38.526Z,3.70
2023-04-10T02:21:42.130Z,3.45
2023-04-10T02:23:43.884Z,3.50
2023-04-10T02:25:45.629Z,3.40
2023-04-10T02:27:47.353Z,3.95
2023-04-10T02:29:49.014Z,3.60
2023-04-10T02:31:50.784Z,3.55
2023-04-10T02:33:52.660Z,3.90
2023-04-10T02:35:54.592Z,3.40
2023-04-10T02:37:56.534Z,4.00
2023-04-10T02:39:58.236Z,3.55
2023-04-10T02:41:59.921Z,3.45
2023-04-10T02:44:01.733Z,3.72
2023-04-10T02:46:03.478Z,3.72
2023-04-10T02:48:08.236Z,3.72
2023-04-10T02:50:10.686Z,3.45
2023-04-10T02:52:12.398Z,3.75
2023-04-10T02:54:14.086Z,3.50
2023-04-10T02:56:15.727Z,3.65
2023-04-10T02:58:17.420Z,3.53
2023-04-10T03:00:19.408Z,3.80
2023-04-10T03:02:21.698Z,3.53
2023-04-10T03:04:23.564Z,4.00
2023-04-10T03:06:28.398Z,3.67
2023-04-10T03:08:30.429Z,3.95
2023-04-10T03:10:32.045Z,3.50
2023-04-10T03:12:33.696Z,3.47
2023-04-10T03:14:35.301Z,4.05
2023-04-10T03:16:37.017Z,3.33
2023-04-10T03:18:38.892Z,3.38
2023-04-10T03:20:41.099Z,3.40
2023-04-10T03:22:43.051Z,3.42
2023-04-10T03:24:44.649Z,3.40
2023-04-10T03:26:46.659Z,3.92
2023-04-10T03:28:48.280Z,3.40
2023-04-10T03:30:50.695Z,4.05
2023-04-10T03:32:52.345Z,3.63
2023-04-10T03:34:54.230Z,3.72
2023-04-10T03:36:55.924Z,3.90
2023-04-10T03:38:57.554Z,4.38
2023-04-10T03:40:59.210Z,4.10
2023-04-10T03:43:01.155Z,3.72
2023-04-10T03:45:04.619Z,3.75
2023-04-10T03:47:06.299Z,3.80
2023-04-10T03:49:07.932Z,3.85
2023-04-10T03:51:09.805Z,4.20
2023-04-10T03:53:11.450Z,3.70
2023-04-10T03:55:14.330Z,4.00
2023-04-10T03:57:18.534Z,3.55
2023-04-10T03:59:21.563Z,4.07
2023-04-10T04:01:24.477Z,3.83
2023-04-10T04:03:26.489Z,3.75
2023-04-10T04:05:28.368Z,3.97
2023-04-10T04:07:30.132Z,4.10
2023-04-10T04:09:31.895Z,4.22
2023-04-10T04:11:33.678Z,3.80
2023-04-10T04:13:35.589Z,3.78
2023-04-10T04:15:37.375Z,3.95
2023-04-10T04:17:39.099Z,3.88
2023-04-10T04:19:40.753Z,3.83
2023-04-10T04:21:42.358Z,3.70
2023-04-10T04:23:44.270Z,3.83
2023-04-10T04:25:46.220Z,3.78
2023-04-10T04:27:47.874Z,4.15
2023-04-10T04:29:49.544Z,6.47
2023-04-10T04:31:51.231Z,4.85
2023-04-10T04:33:53.036Z,4.43
2023-04-10T04:35:54.781Z,4.68
2023-04-10T04:37:56.453Z,4.18
2023-04-10T04:39:58.082Z,4.13
2023-04-10T04:41:59.741Z,3.65
2023-04-10T04:44:02.308Z,4.00
2023-04-10T04:46:04.185Z,4.45
2023-04-10T04:48:06.010Z,4.35
2023-04-10T04:50:08.604Z,4.72
2023-04-10T04:52:10.859Z,4.72
2023-04-10T04:54:12.511Z,4.72
2023-04-10T04:56:14.199Z,4.30
2023-04-10T04:58:15.922Z,4.32
2023-04-10T05:00:17.646Z,4.43
2023-04-10T05:02:22.426Z,4.43
2023-04-10T05:04:24.936Z,5.18
2023-04-10T05:06:26.718Z,4.50
2023-04-10T05:08:28.403Z,3.92
2023-04-10T05:10:30.018Z,4.18
2023-04-10T05:12:31.740Z,4.50
2023-04-10T05:14:33.465Z,4.40
2023-04-10T05:16:35.241Z,4.20
2023-04-10T05:18:37.131Z,4.10
2023-04-10T05:20:39.024Z,3.88
2023-04-10T05:22:41.003Z,3.67
2023-04-10T05:24:42.654Z,4.25
2023-04-10T05:26:44.416Z,4.53
2023-04-10T05:28:46.453Z,4.30
2023-04-10T05:30:48.191Z,4.45
2023-04-10T05:32:49.854Z,4.07
2023-04-10T05:34:51.517Z,4.10
2023-04-10T05:36:53.178Z,3.90
2023-04-10T05:38:54.936Z,3.72
2023-04-10T05:40:56.673Z,3.78
2023-04-10T05:42:58.334Z,3.95
2023-04-10T05:44:59.945Z,4.30
2023-04-10T05:47:01.700Z,4.10
2023-04-10T05:49:03.345Z,4.40
2023-04-10T05:51:05.601Z,4.28
2023-04-10T05:53:07.365Z,3.63
2023-04-10T05:55:09.541Z,4.10
2023-04-10T05:57:11.219Z,4.10
2023-04-10T05:59:13.353Z,4.00
2023-04-10T06:01:15.054Z,4.30
2023-04-10T06:03:16.776Z,4.15
2023-04-10T06:05:18.666Z,4.15
2023-04-10T06:07:20.331Z,4.25
2023-04-10T06:09:22.010Z,3.72
2023-04-10T06:11:23.656Z,6.00
2023-04-10T06:13:25.598Z,3.83
2023-04-10T06:15:27.355Z,4.45
2023-04-10T06:17:29.023Z,4.78
2023-04-10T06:19:30.775Z,5.72
2023-04-10T06:21:32.445Z,5.45
2023-04-10T06:23:34.187Z,5.20
2023-04-10T06:25:35.926Z,5.35
2023-04-10T06:27:37.656Z,4.75
2023-04-10T06:29:39.374Z,4.50
2023-04-10T06:31:41.146Z,5.13
2023-04-10T06:33:42.767Z,5.32
2023-04-10T06:35:44.503Z,4.63
2023-04-10T06:37:46.200Z,4.70
2023-04-10T06:39:48.044Z,4.60
2023-04-10T06:41:49.679Z,4.50
2023-04-10T06:43:51.573Z,4.53
2023-04-10T06:45:53.177Z,4.03
2023-04-10T06:47:55.000Z,4.25
2023-04-10T06:49:56.702Z,4.47
2023-04-10T06:51:58.434Z,3.83
2023-04-10T06:54:00.206Z,4.43
2023-04-10T06:56:03.549Z,4.25
2023-04-10T06:58:05.380Z,4.25
2023-04-10T07:00:07.987Z,3.85
2023-04-10T07:02:09.795Z,4.25
2023-04-10T07:04:11.504Z,4.30
2023-04-10T07:06:13.419Z,3.72
2023-04-10T07:08:15.721Z,4.25
2023-04-10T07:10:17.376Z,4.90
2023-04-10T07:12:18.995Z,4.80
2023-04-10T07:14:20.662Z,4.43
2023-04-10T07:16:22.357Z,5.10
2023-04-10T07:18:24.101Z,4.57
2023-04-10T07:20:25.831Z,4.38
2023-04-10T07:22:27.920Z,4.70
2023-04-10T07:24:30.819Z,4.28
2023-04-10T07:26:32.558Z,4.85
2023-04-10T07:28:34.245Z,5.00
2023-04-10T07:30:36.481Z,5.13
2023-04-10T07:32:39.826Z,4.43
2023-04-10T07:34:42.145Z,4.10
2023-04-10T07:36:45.871Z,4.18
2023-04-10T07:38:47.710Z,4.80
2023-04-10T07:40:49.430Z,4.88
2023-04-10T07:42:53.329Z,4.85
2023-04-10T07:44:55.541Z,4.50
2023-04-10T07:46:57.203Z,4.63
2023-04-10T07:48:58.890Z,4.60
2023-04-10T07:51:00.591Z,4.28
2023-04-10T07:53:07.489Z,4.22
2023-04-10T07:55:09.477Z,4.05
2023-04-10T07:57:11.105Z,4.38
2023-04-10T07:59:12.802Z,4.32
2023-04-10T08:01:15.557Z,4.28
2023-04-10T08:03:17.415Z,5.20
2023-04-10T08:05:19.326Z,4.25
2023-04-10T08:07:24.012Z,4.00
2023-04-10T08:09:25.816Z,4.25
2023-04-10T08:11:28.421Z,4.03
2023-04-10T08:13:30.166Z,4.43
2023-04-10T08:15:31.930Z,4.35
2023-04-10T08:17:33.689Z,3.92
2023-04-10T08:19:36.289Z,4.18
2023-04-10T08:21:37.957Z,4.30
2023-04-10T08:23:39.589Z,3.70
2023-04-10T08:25:41.307Z,4.93
2023-04-10T08:27:43.011Z,4.38
2023-04-10T08:29:44.754Z,3.97
2023-04-10T08:31:46.458Z,4.20
2023-04-10T08:33:48.585Z,4.10
2023-04-10T08:35:50.350Z,4.03
2023-04-10T08:38:07.594Z,3.92
2023-04-10T08:40:13.656Z,3.83
2023-04-10T08:42:15.509Z,4.05
2023-04-10T08:44:17.527Z,3.75
2023-04-10T08:46:20.111Z,3.70
2023-04-10T08:48:25.196Z,3.70
2023-04-10T08:50:29.413Z,3.85
2023-04-10T08:52:34.422Z,3.80
2023-04-10T08:54:38.910Z,3.40
2023-04-10T08:56:42.742Z,3.80
2023-04-10T08:58:45.020Z,3.58
2023-04-10T09:00:47.160Z,3.67
2023-04-10T09:02:51.110Z,3.95
2023-04-10T09:04:55.257Z,3.88
2023-04-10T09:06:57.070Z,3.50
2023-04-10T09:11:02.688Z,3.55
2023-04-10T09:13:04.396Z,3.55
2023-04-10T09:15:06.439Z,4.05
2023-04-10T09:17:18.447Z,3.28
2023-04-10T09:19:30.924Z,3.78
2023-04-10T09:21:32.624Z,3.50
2023-04-10T09:23:34.243Z,3.20
2023-04-10T09:25:38.955Z,3.38
2023-04-10T09:27:42.061Z,3.50
2023-04-10T09:29:48.519Z,2.90
2023-04-10T09:31:50.932Z,3.45
2023-04-10T09:34:27.229Z,3.13
2023-04-10T09:36:29.012Z,3.40
2023-04-10T09:38:30.723Z,3.08
2023-04-10T09:40:32.392Z,3.50
2023-04-10T09:42:37.720Z,3.40
2023-04-10T09:44:40.981Z,2.97
2023-04-10T09:46:42.588Z,3.47
2023-04-10T09:48:57.001Z,3.13
2023-04-10T09:50:58.627Z,2.95
2023-04-10T09:53:00.270Z,3.45
2023-04-10T09:55:08.528Z,3.47
2023-04-10T09:57:11.145Z,3.10
2023-04-10T09:59:15.672Z,3.30
2023-04-10T10:01:17.836Z,2.95
2023-04-10T10:03:24.105Z,2.83
2023-04-10T10:05:30.615Z,2.88
2023-04-10T10:07:32.634Z,3.20
2023-04-10T10:09:36.289Z,3.33
2023-04-10T10:11:37.927Z,3.05
2023-04-10T10:13:49.456Z,2.90
2023-04-10T10:15:59.890Z,3.13
2023-04-10T10:18:17.737Z,2.72
2023-04-10T10:20:22.279Z,2.90
2023-04-10T10:22:26.253Z,3.35
2023-04-10T10:24:29.655Z,2.58
2023-04-10T10:26:34.791Z,2.92
2023-04-10T10:28:37.717Z,2.75
2023-04-10T10:30:40.242Z,2.80
2023-04-10T10:32:42.231Z,2.90
2023-04-10T10:34:44.735Z,2.85
2023-04-10T10:36:46.343Z,3.20
2023-04-10T10:39:17.050Z,2.58
2023-04-10T10:41:27.178Z,2.70
2023-04-10T10:43:44.138Z,2.60
2023-04-10T10:46:02.930Z,2.63
2023-04-10T10:48:04.764Z,2.53
2023-04-10T10:50:06.896Z,2.47
2023-04-10T10:52:08.576Z,2.60
2023-04-10T10:54:36.619Z,2.50
2023-04-10T10:56:40.636Z,2.77
2023-04-10T10:58:50.619Z,2.53
2023-04-10T11:00:52.265Z,2.38
2023-04-10T11:03:09.384Z,2.40
2023-04-10T11:05:31.423Z,2.30
2023-04-10T11:08:01.988Z,2.08
2023-04-10T11:10:03.726Z,2.53
2023-04-10T11:12:07.713Z,2.42
2023-04-10T11:14:09.344Z,2.50
2023-04-10T11:16:11.226Z,2.50
2023-04-10T11:18:12.864Z,2.50
2023-04-10T11:20:14.569Z,2.30
2023-04-10T11:22:16.600Z,2.67
2023-04-10T11:24:18.616Z,2.55
2023-04-10T11:26:35.766Z,2.35
2023-04-10T11:28:41.024Z,2.20
2023-04-10T11:30:42.846Z,2.25
2023-04-10T11:32:45.428Z,2.20
2023-04-10T11:34:47.125Z,2.13
2023-04-10T11:36:49.179Z,2.10
2023-04-10T11:38:54.374Z,2.40
2023-04-10T11:41:04.015Z,2.40
2023-04-10T11:43:14.045Z,2.05
2023-04-10T11:45:28.889Z,2.10
2023-04-10T11:47:30.854Z,2.13
2023-04-10T11:49:34.669Z,2.10
2023-04-10T11:51:38.061Z,2.13
2023-04-10T11:53:41.230Z,1.85
2023-04-10T11:55:42.910Z,1.92
2023-04-10T11:57:46.019Z,2.10
2023-04-10T11:59:51.060Z,1.80
2023-04-10T12:01:55.897Z,1.95
2023-04-10T12:03:57.911Z,1.80
2023-04-10T12:05:59.729Z,2.00
2023-04-10T12:08:02.137Z,1.70
2023-04-10T12:10:04.102Z,1.98
2023-04-10T12:12:07.442Z,1.73
2023-04-10T12:14:09.136Z,1.70
2023-04-10T12:16:11.818Z,1.77
2023-04-10T12:18:13.626Z,1.98
2023-04-10T12:20:16.651Z,1.90
2023-04-10T12:22:18.574Z,1.60
2023-04-10T12:24:45.002Z,1.90
2023-04-10T12:26:49.807Z,1.88
2023-04-10T12:28:54.861Z,1.55
2023-04-10T12:30:57.190Z,1.70
2023-04-10T12:33:03.638Z,1.70
2023-04-10T12:35:05.956Z,2.00
2023-04-10T12:37:09.723Z,1.60
2023-04-10T12:39:23.731Z,1.52
2023-04-10T12:41:27.236Z,1.70
2023-04-10T12:43:34.073Z,1.70
2023-04-10T12:45:45.470Z,1.83
2023-04-10T12:47:53.853Z,1.80
2023-04-10T12:50:14.904Z,1.88
2023-04-10T12:52:22.912Z,1.58
2023-04-10T12:54:33.095Z,1.70
2023-04-10T12:56:42.643Z,1.55
2023-04-10T12:58:44.381Z,1.50
2023-04-10T13:00:47.182Z,1.80
2023-04-10T13:02:49.370Z,1.40
2023-04-10T13:04:51.296Z,1.27
2023-04-10T13:06:53.212Z,1.67
2023-04-10T13:08:55.977Z,1.63
2023-04-10T13:11:03.810Z,1.67
2023-04-10T13:13:06.938Z,1.35
2023-04-10T13:15:10.609Z,1.42
2023-04-10T13:17:12.503Z,1.40
2023-04-10T13:19:14.149Z,1.30
2023-04-10T13:21:19.840Z,1.58
2023-04-10T13:23:21.616Z,1.30
2023-04-10T13:25:23.420Z,1.38
2023-04-10T13:27:25.064Z,1.55
2023-04-10T13:29:26.861Z,1.50
2023-04-10T13:31:28.594Z,1.50
2023-04-10T13:33:30.305Z,1.55
2023-04-10T13:35:32.120Z,1.50
2023-04-10T13:37:33.799Z,1.40
2023-04-10T13:39:35.474Z,1.35
2023-04-10T13:41:38.182Z,1.30
2023-04-10T13:43:39.802Z,1.48
2023-04-10T13:45:41.727Z,1.40
2023-04-10T13:47:43.978Z,1.25
2023-04-10T13:49:45.829Z,1.25
2023-04-10T13:51:47.897Z,1.50
2023-04-10T13:53:49.616Z,1.25
2023-04-10T13:55:51.290Z,1.25
2023-04-10T13:57:53.023Z,1.38
2023-04-10T13:59:54.661Z,1.20
2023-04-10T14:01:56.365Z,1.08
2023-04-10T14:03:58.260Z,1.30
2023-04-10T14:06:00.035Z,1.38
2023-04-10T14:08:01.744Z,1.25
2023-04-10T14:10:03.624Z,1.30
2023-04-10T14:12:05.309Z,1.35
2023-04-10T14:14:06.960Z,1.30
2023-04-10T14:16:08.790Z,1.30
2023-04-10T14:18:10.908Z,1.48
2023-04-10T14:20:13.284Z,1.40
2023-04-10T14:22:15.029Z,1.20
2023-04-10T14:24:16.713Z,1.30
2023-04-10T14:26:18.351Z,1.80
2023-04-10T14:28:20.020Z,2.20
2023-04-10T14:30:21.698Z,2.00
2023-04-10T14:32:23.426Z,1.65
2023-04-10T14:34:25.196Z,2.08
2023-04-10T14:36:27.832Z,1.70
2023-04-10T14:38:29.636Z,1.83
2023-04-10T14:40:31.437Z,1.90
2023-04-10T14:42:33.099Z,2.00
2023-04-10T14:44:34.769Z,2.00
2023-04-10T14:46:37.325Z,1.95
2023-04-10T14:48:39.253Z,1.98
2023-04-10T14:50:41.061Z,2.03
2023-04-10T14:52:42.722Z,1.40
2023-04-10T14:54:44.418Z,1.38
2023-04-10T14:56:46.042Z,1.73
2023-04-10T14:58:47.737Z,2.10
2023-04-10T15:00:50.579Z,1.90
2023-04-10T15:02:52.548Z,2.10
2023-04-10T15:04:54.423Z,2.00
2023-04-10T15:06:56.064Z,1.88
2023-04-10T15:08:57.881Z,1.80
2023-04-10T15:10:59.501Z,2.40
2023-04-10T15:13:01.118Z,2.08
2023-04-10T15:15:02.798Z,2.65
2023-04-10T15:17:04.749Z,2.08
2023-04-10T15:19:06.593Z,1.98
2023-04-10T15:21:08.243Z,1.70
2023-04-10T15:23:11.446Z,1.77
2023-04-10T15:25:13.160Z,1.92
2023-04-10T15:27:14.830Z,1.90
2023-04-10T15:29:16.540Z,1.85
2023-04-10T15:31:22.573Z,2.00
2023-04-10T15:33:24.341Z,2.30
2023-04-10T15:35:27.815Z,4.38
2023-04-10T15:37:29.421Z,7.50
2023-04-10T15:39:31.049Z,9.70
2023-04-10T15:41:33.078Z,9.65
2023-04-10T15:43:35.225Z,13.20
2023-04-10T15:45:37.425Z,18.77
2023-04-10T15:47:39.075Z,21.27
2023-04-10T15:49:40.927Z,24.75
2023-04-10T15:51:42.642Z,22.65
2023-04-10T15:53:44.273Z,20.80
2023-04-10T15:55:45.998Z,19.73
2023-04-10T15:57:47.739Z,21.35
2023-04-10T15:59:53.256Z,18.45
2023-04-10T16:01:54.954Z,17.58
2023-04-10T16:03:56.882Z,15.10
2023-04-10T16:05:58.702Z,15.13
2023-04-10T16:08:02.216Z,14.20
2023-04-10T16:10:05.601Z,15.45
2023-04-10T16:12:07.392Z,14.50
2023-04-10T16:14:09.055Z,14.45
2023-04-10T16:16:15.413Z,14.55
2023-04-10T16:18:17.119Z,13.85
2023-04-10T16:20:18.919Z,14.13
2023-04-10T16:22:20.616Z,13.13
2023-04-10T16:24:22.558Z,13.50
2023-04-10T16:26:24.262Z,13.07
2023-04-10T16:28:26.089Z,13.57
2023-04-10T16:30:27.816Z,12.60
2023-04-10T16:32:31.634Z,11.98
2023-04-10T16:34:34.720Z,11.73
2023-04-10T16:36:36.890Z,13.07
2023-04-10T16:38:38.646Z,12.32
2023-04-10T16:40:40.310Z,11.98
2023-04-10T16:42:42.940Z,10.50
2023-04-10T16:44:44.638Z,11.05
2023-04-10T16:46:46.377Z,9.90
2023-04-10T16:48:48.043Z,10.57
2023-04-10T16:50:49.782Z,9.73
2023-04-10T16:52:51.444Z,9.40
2023-04-10T16:54:53.155Z,9.02
2023-04-10T16:56:54.758Z,9.88
2023-04-10T16:58:57.443Z,10.18
2023-04-10T17:00:59.378Z,9.18
2023-04-10T17:03:01.847Z,9.25
2023-04-10T17:05:03.752Z,9.05
2023-04-10T17:07:05.620Z,8.23
2023-04-10T17:09:07.464Z,9.07
2023-04-10T17:11:09.213Z,7.07
2023-04-10T17:13:10.889Z,8.07
2023-04-10T17:15:12.570Z,7.03
2023-04-10T17:17:14.392Z,7.57
2023-04-10T17:19:17.413Z,7.60
2023-04-10T17:21:19.161Z,7.07
2023-04-10T17:23:20.824Z,6.78
2023-04-10T17:25:22.516Z,6.97
2023-04-10T17:27:24.182Z,7.90
2023-04-10T17:29:25.855Z,7.78
2023-04-10T17:31:28.171Z,6.15
2023-04-10T17:33:29.948Z,5.75
2023-04-10T17:35:31.601Z,5.57
2023-04-10T17:37:33.232Z,5.47
2023-04-10T17:39:34.903Z,5.55
2023-04-10T17:41:36.584Z,5.47
2023-04-10T17:43:38.403Z,5.68
2023-04-10T17:45:40.391Z,6.05
2023-04-10T17:47:42.201Z,5.57
2023-04-10T17:49:43.874Z,5.97
2023-04-10T17:51:45.607Z,5.57
2023-04-10T17:53:47.240Z,5.88
2023-04-10T17:55:48.879Z,5.45
2023-04-10T17:57:50.585Z,5.47
2023-04-10T17:59:52.215Z,5.13
2023-04-10T18:01:54.004Z,5.47
2023-04-10T18:03:59.301Z,5.50
2023-04-10T18:06:01.133Z,5.22
2023-04-10T18:08:02.745Z,5.30
2023-04-10T18:10:05.979Z,5.30
2023-04-10T18:12:07.696Z,5.10
2023-04-10T18:14:10.226Z,5.43
2023-04-10T18:16:12.190Z,5.05
2023-04-10T18:18:14.089Z,4.25
2023-04-10T18:20:15.877Z,4.70
2023-04-10T18:22:18.635Z,5.22
2023-04-10T18:24:20.332Z,4.32
2023-04-10T18:26:22.053Z,3.92
2023-04-10T18:28:23.813Z,4.47
2023-04-10T18:30:25.445Z,4.40
2023-04-10T18:32:27.265Z,4.57
2023-04-10T18:34:29.004Z,4.05
2023-04-10T18:36:31.373Z,4.20
2023-04-10T18:38:34.116Z,4.13
2023-04-10T18:40:36.904Z,4.38
2023-04-10T18:42:38.756Z,4.03
2023-04-10T18:44:40.486Z,3.83
2023-04-10T18:46:46.259Z,3.65
2023-04-10T18:48:53.387Z,3.55
2023-04-10T18:50:55.073Z,4.03
2023-04-10T18:52:56.710Z,3.70
2023-04-10T18:54:58.442Z,3.60
2023-04-10T18:57:00.137Z,3.70
2023-04-10T18:59:01.865Z,3.65
2023-04-10T19:01:03.607Z,3.80
2023-04-10T19:03:05.405Z,3.35
2023-04-10T19:05:08.465Z,3.63
2023-04-10T19:07:10.256Z,3.55
2023-04-10T19:09:12.823Z,3.55
2023-04-10T19:11:14.455Z,3.40
2023-04-10T19:13:16.279Z,3.25
2023-04-10T19:15:19.051Z,3.92
2023-04-10T19:17:21.804Z,3.30
2023-04-10T19:19:23.683Z,3.38
2023-04-10T19:21:26.232Z,3.75
2023-04-10T19:23:27.944Z,3.55
2023-04-10T19:25:29.654Z,3.05
2023-04-10T19:27:31.293Z,3.08
2023-04-10T19:29:32.887Z,3.05
2023-04-10T19:31:34.633Z,3.33
2023-04-10T19:33:36.416Z,3.67
2023-04-10T19:35:38.161Z,2.95
2023-04-10T19:37:40.011Z,2.70
2023-04-10T19:39:41.624Z,2.60
2023-04-10T19:41:43.930Z,2.78
2023-04-10T19:43:45.766Z,2.90
2023-04-10T19:45:47.554Z,2.63
2023-04-10T19:47:52.137Z,2.75
2023-04-10T19:49:53.958Z,2.95
2023-04-10T19:51:55.684Z,2.80
2023-04-10T19:53:58.453Z,2.78
2023-04-10T19:56:00.422Z,2.47
2023-04-10T19:58:02.067Z,2.75
2023-04-10T20:00:03.897Z,2.70
2023-04-10T20:02:06.426Z,2.70
2023-04-10T20:04:08.350Z,2.78
2023-04-10T20:06:10.408Z,2.40
2023-04-10T20:08:12.158Z,2.50
2023-04-10T20:10:13.835Z,2.30
2023-04-10T20:12:16.232Z,2.50
2023-04-10T20:14:17.870Z,2.45
2023-04-10T20:16:19.595Z,2.50
2023-04-10T20:18:21.360Z,2.30
2023-04-10T20:20:23.039Z,2.28
2023-04-10T20:22:25.302Z,1.90
2023-04-10T20:24:26.955Z,2.42
2023-04-10T20:26:28.811Z,2.30
2023-04-10T20:28:31.665Z,2.08
2023-04-10T20:30:34.702Z,2.47
2023-04-10T20:32:36.757Z,2.50
2023-04-10T20:34:38.685Z,2.30
2023-04-10T20:36:40.460Z,2.50
2023-04-10T20:38:42.129Z,2.00
2023-04-10T20:40:43.798Z,1.98
2023-04-10T20:42:45.636Z,2.33
2023-04-10T20:44:47.284Z,2.05
2023-04-10T20:46:50.292Z,1.90
2023-04-10T20:48:52.111Z,2.10
2023-04-10T20:50:53.846Z,1.83
2023-04-10T20:52:55.558Z,1.98
2023-04-10T20:54:57.221Z,2.35
2023-04-10T20:57:00.149Z,2.05
2023-04-10T20:59:04.891Z,2.13
2023-04-10T21:01:09.587Z,2.08
2023-04-10T21:03:11.607Z,1.73
2023-04-10T21:05:13.648Z,2.13
2023-04-10T21:07:15.417Z,2.13
2023-04-10T21:09:17.124Z,2.30
2023-04-10T21:11:22.072Z,2.00
2023-04-10T21:13:23.703Z,2.15
2023-04-10T21:15:25.611Z,1.98
2023-04-10T21:17:31.025Z,1.95
2023-04-10T21:19:32.817Z,2.17
2023-04-10T21:21:34.489Z,1.80
2023-04-10T21:23:36.196Z,2.00
2023-04-10T21:25:39.136Z,1.77
2023-04-10T21:27:40.786Z,2.28
2023-04-10T21:29:42.449Z,1.80
2023-04-10T21:31:44.108Z,2.20
2023-04-10T21:33:45.751Z,1.80
2023-04-10T21:35:47.977Z,2.20
2023-04-10T21:37:54.612Z,1.90
2023-04-10T21:39:56.201Z,1.80
2023-04-10T21:41:57.857Z,1.75
2023-04-10T21:44:00.886Z,1.80
2023-04-10T21:46:03.251Z,1.75
2023-04-10T21:48:05.362Z,1.80
2023-04-10T21:50:07.661Z,1.55
2023-04-10T21:52:11.000Z,1.83
2023-04-10T21:54:12.750Z,2.25
2023-04-10T21:56:14.547Z,1.70
2023-04-10T21:58:16.226Z,1.70
2023-04-10T22:00:18.442Z,2.08
2023-04-10T22:02:21.219Z,2.03
2023-04-10T22:04:23.163Z,1.73
2023-04-10T22:06:24.885Z,2.00
2023-04-10T22:08:26.994Z,1.60
2023-04-10T22:10:28.585Z,2.08
2023-04-10T22:12:30.649Z,1.75
2023-04-10T22:14:32.368Z,1.95
2023-04-10T22:16:33.976Z,1.83
2023-04-10T22:18:35.716Z,1.83
2023-04-10T22:20:37.370Z,1.55
2023-04-10T22:22:39.095Z,1.60
2023-04-10T22:24:40.887Z,1.77
2023-04-10T22:26:45.806Z,1.80
2023-04-10T22:28:47.401Z,1.85
2023-04-10T22:30:49.053Z,1.90
2023-04-10T22:32:54.144Z,1.58
2023-04-10T22:34:55.869Z,1.98
2023-04-10T22:36:57.682Z,2.05
2023-04-10T22:38:59.532Z,1.95
2023-04-10T22:41:01.193Z,1.70
2023-04-10T22:43:02.858Z,1.88
2023-04-10T22:45:05.022Z,1.50
2023-04-10T22:47:06.711Z,1.63
2023-04-10T22:49:08.434Z,1.80
2023-04-10T22:51:11.552Z,1.73
2023-04-10T22:53:13.229Z,1.65
2023-04-10T22:55:14.933Z,1.75
2023-04-10T22:57:16.618Z,1.67
2023-04-10T22:59:18.429Z,1.77
2023-04-10T23:01:20.269Z,1.90
2023-04-10T23:03:22.000Z,1.70
2023-04-10T23:05:23.666Z,1.90
2023-04-10T23:07:27.722Z,2.10
2023-04-10T23:09:29.356Z,1.60
2023-04-10T23:11:31.000Z,1.55
2023-04-10T23:13:32.662Z,1.60
2023-04-10T23:15:34.353Z,1.50
2023-04-10T23:17:36.150Z,1.42
2023-04-10T23:19:37.839Z,1.38
2023-04-10T23:21:39.499Z,1.50
2023-04-10T23:23:41.145Z,1.30
2023-04-10T23:25:42.897Z,1.73
2023-04-10T23:27:44.574Z,1.50
2023-04-10T23:29:46.287Z,1.80
2023-04-10T23:31:48.064Z,1.75
2023-04-10T23:33:49.835Z,1.73
2023-04-10T23:35:51.586Z,1.75
2023-04-10T23:37:53.769Z,1.50
2023-04-10T23:39:55.387Z,1.75
2023-04-10T23:41:57.346Z,1.50
2023-04-10T23:43:58.989Z,1.58
2023-04-10T23:46:00.853Z,1.77
2023-04-10T23:48:02.600Z,1.30
2023-04-10T23:50:04.644Z,1.48
2023-04-10T23:52:06.286Z,1.52
2023-04-10T23:54:07.978Z,1.17
2023-04-10T23:56:09.859Z,1.77
2023-04-10T23:58:11.597Z,1.65
